createdAt,value
2018-05-17T00:02:04.421Z,75.60
2018-05-17T00:05:07.107Z,75.60
2018-05-17T00:08:09.729Z,75.50
2018-05-17T00:11:13.132Z,75.00
2018-05-17T00:14:15.723Z,75.00
2018-05-17T00:17:19.061Z,75.30
2018-05-17T00:20:21.751Z,75.30
2018-05-17T00:23:24.397Z,75.20
2018-05-17T00:26:27.058Z,75.30
2018-05-17T00:29:29.644Z,75.20
2018-05-17T00:32:32.238Z,75.00
2018-05-17T00:35:35.593Z,75.10
2018-05-17T00:38:38.213Z,75.10
2018-05-17T00:41:42.380Z,75.00
2018-05-17T00:44:44.976Z,74.80
2018-05-17T00:47:47.644Z,74.90
2018-05-17T00:50:50.244Z,75.00
2018-05-17T00:53:52.987Z,75.30
2018-05-17T00:56:55.646Z,75.20
2018-05-17T00:59:58.171Z,75.30
2018-05-17T01:03:00.766Z,75.10
2018-05-17T01:06:03.378Z,75.00
2018-05-17T01:09:06.070Z,75.30
2018-05-17T01:12:09.697Z,75.40
2018-05-17T01:15:12.327Z,75.50
2018-05-17T01:18:15.025Z,75.40
2018-05-17T01:21:19.129Z,75.30
2018-05-17T01:24:21.738Z,75.20
2018-05-17T01:27:24.332Z,75.40
2018-05-17T01:30:26.937Z,75.30
2018-05-17T01:33:29.586Z,75.20
2018-05-17T01:36:32.202Z,75.20
2018-05-17T01:39:34.788Z,75.00
2018-05-17T01:42:37.461Z,75.00
2018-05-17T01:45:40.080Z,75.00
2018-05-17T01:48:42.683Z,75.10
2018-05-17T01:51:45.291Z,75.20
2018-05-17T01:54:48.647Z,75.30
2018-05-17T01:57:51.242Z,75.30
2018-05-17T02:00:53.991Z,75.60
2018-05-17T02:03:56.888Z,75.60
2018-05-17T02:06:59.649Z,75.80
2018-05-17T02:10:02.289Z,75.80
2018-05-17T02:13:05.645Z,75.70
2018-05-17T02:16:08.254Z,76.50
2018-05-17T02:19:11.049Z,75.70
2018-05-17T02:22:13.637Z,75.80
2018-05-17T02:25:16.235Z,75.80
2018-05-17T02:28:18.820Z,75.70
2018-05-17T02:31:21.432Z,75.60
2018-05-17T02:34:24.089Z,75.50
2018-05-17T02:37:27.464Z,75.80
2018-05-17T02:40:31.766Z,75.40
2018-05-17T02:43:34.352Z,75.30
2018-05-17T02:46:36.944Z,75.10
2018-05-17T02:49:39.522Z,75.00
2018-05-17T02:52:42.105Z,75.20
2018-05-17T02:55:44.690Z,75.10
2018-05-17T02:58:47.286Z,74.70
2018-05-17T03:01:49.896Z,74.10
2018-05-17T03:04:53.298Z,74.10
2018-05-17T03:07:55.866Z,74.10
2018-05-17T03:10:59.223Z,73.90
2018-05-17T03:14:01.804Z,73.90
2018-05-17T03:17:04.366Z,74.20
2018-05-17T03:20:06.958Z,74.40
2018-05-17T03:23:09.616Z,74.50
2018-05-17T03:26:12.397Z,74.50
2018-05-17T03:29:15.008Z,74.50
2018-05-17T03:32:17.572Z,74.40
2018-05-17T03:35:20.158Z,75.10
2018-05-17T03:38:22.768Z,74.00
2018-05-17T03:41:25.407Z,74.00
2018-05-17T03:44:27.989Z,74.20
2018-05-17T03:47:30.576Z,74.30
2018-05-17T03:50:33.132Z,73.90
2018-05-17T03:53:35.730Z,74.20
2018-05-17T03:56:38.320Z,74.30
2018-05-17T03:59:40.903Z,74.20
2018-05-17T04:02:55.394Z,74.30
2018-05-17T04:06:09.818Z,74.10
2018-05-17T04:09:12.391Z,74.10
2018-05-17T04:12:14.978Z,73.80
2018-05-17T04:15:17.548Z,73.70
2018-05-17T04:18:20.129Z,73.80
2018-05-17T04:21:23.497Z,73.90
2018-05-17T04:24:26.142Z,73.90
2018-05-17T04:27:28.708Z,74.00
2018-05-17T04:30:31.296Z,75.10
2018-05-17T04:33:33.917Z,74.00
2018-05-17T04:36:36.478Z,74.10
2018-05-17T04:39:39.062Z,73.90
2018-05-17T04:42:41.619Z,73.40
2018-05-17T04:45:44.205Z,72.90
2018-05-17T04:48:46.763Z,72.10
2018-05-17T04:51:50.151Z,71.40
2018-05-17T04:54:52.735Z,71.40
2018-05-17T04:57:56.143Z,71.30
2018-05-17T05:00:58.758Z,70.50
2018-05-17T05:04:01.359Z,70.10
2018-05-17T05:07:04.039Z,69.50
2018-05-17T05:10:06.650Z,68.90
2018-05-17T05:13:09.219Z,68.40
2018-05-17T05:16:11.845Z,67.80
2018-05-17T05:19:14.544Z,67.90
2018-05-17T05:22:17.226Z,67.80
2018-05-17T05:25:19.837Z,67.90
2018-05-17T05:28:22.455Z,67.00
2018-05-17T05:31:25.026Z,66.60
2018-05-17T05:34:27.660Z,67.00
2018-05-17T05:37:30.327Z,66.60
2018-05-17T05:40:32.914Z,66.00
2018-05-17T05:43:35.513Z,65.40
2018-05-17T05:46:38.113Z,64.70
2018-05-17T05:49:41.402Z,64.10
2018-05-17T05:52:44.009Z,63.20
2018-05-17T05:55:46.638Z,60.90
2018-05-17T05:58:49.255Z,59.30
2018-05-17T06:01:51.912Z,57.80
2018-05-17T06:04:54.585Z,56.50
2018-05-17T06:07:57.468Z,54.20
2018-05-17T06:11:00.433Z,52.90
2018-05-17T06:14:03.036Z,50.40
2018-05-17T06:17:05.723Z,49.20
2018-05-17T06:20:08.345Z,48.60
2018-05-17T06:23:11.110Z,47.50
2018-05-17T06:26:13.708Z,47.20
2018-05-17T06:29:16.327Z,46.10
2018-05-17T06:32:18.893Z,44.90
2018-05-17T06:35:21.502Z,42.90
2018-05-17T06:38:24.848Z,38.90
2018-05-17T06:41:27.507Z,38.80
2018-05-17T06:44:30.975Z,35.80
2018-05-17T06:47:33.606Z,35.70
2018-05-17T06:50:36.233Z,34.60
2018-05-17T06:53:39.585Z,34.30
2018-05-17T06:56:42.166Z,32.70
2018-05-17T06:59:44.830Z,31.40
2018-05-17T07:02:48.271Z,29.10
2018-05-17T07:05:50.912Z,29.10
2018-05-17T07:08:53.519Z,27.70
2018-05-17T07:11:56.112Z,26.40
2018-05-17T07:14:58.728Z,25.30
2018-05-17T07:18:01.430Z,24.60
2018-05-17T07:21:03.957Z,23.10
2018-05-17T07:24:06.598Z,22.70
2018-05-17T07:27:09.187Z,22.20
2018-05-17T07:30:12.608Z,20.10
2018-05-17T07:33:15.326Z,20.10
2018-05-17T07:36:17.947Z,20.60
2018-05-17T07:39:20.562Z,19.60
2018-05-17T07:42:23.147Z,18.30
2018-05-17T07:45:25.731Z,18.60
2018-05-17T07:48:28.474Z,19.30
2018-05-17T07:51:31.289Z,17.80
2018-05-17T07:54:34.078Z,17.40
2018-05-17T07:57:36.678Z,16.20
2018-05-17T08:00:39.265Z,15.60
2018-05-17T08:03:41.858Z,15.40
2018-05-17T08:06:44.597Z,15.10
2018-05-17T08:09:47.407Z,15.80
2018-05-17T08:12:50.021Z,16.60
2018-05-17T08:15:52.640Z,16.20
2018-05-17T08:18:55.336Z,17.30
2018-05-17T08:21:57.925Z,18.50
2018-05-17T08:25:00.516Z,19.00
2018-05-17T08:28:03.103Z,20.30
2018-05-17T08:31:05.843Z,20.70
2018-05-17T08:34:08.534Z,21.20
2018-05-17T08:37:11.142Z,23.00
2018-05-17T08:40:13.727Z,24.10
2018-05-17T08:43:16.340Z,24.50
2018-05-17T08:46:18.959Z,25.20
2018-05-17T08:49:22.354Z,27.50
2018-05-17T08:52:24.952Z,27.50
2018-05-17T08:55:28.372Z,28.50
2018-05-17T08:58:30.987Z,28.40
2018-05-17T09:01:33.647Z,27.80
2018-05-17T09:04:36.252Z,27.70
2018-05-17T09:07:38.941Z,28.30
2018-05-17T09:10:41.515Z,26.40
2018-05-17T09:13:44.431Z,26.60
2018-05-17T09:16:47.159Z,27.70
2018-05-17T09:19:49.779Z,28.50
2018-05-17T09:22:52.390Z,28.50
2018-05-17T09:25:55.025Z,29.20
2018-05-17T09:28:57.605Z,30.40
2018-05-17T09:32:00.267Z,31.80
2018-05-17T09:35:02.918Z,32.90
2018-05-17T09:38:05.555Z,33.10
2018-05-17T09:41:08.426Z,33.80
2018-05-17T09:44:10.995Z,33.10
2018-05-17T09:47:14.567Z,32.00
2018-05-17T09:50:18.079Z,31.90
2018-05-17T09:53:20.799Z,30.70
2018-05-17T09:56:23.371Z,31.30
2018-05-17T09:59:25.966Z,32.00
2018-05-17T10:02:28.644Z,33.00
2018-05-17T10:05:31.242Z,33.20
2018-05-17T10:08:34.104Z,33.60
2018-05-17T10:11:36.689Z,33.10
2018-05-17T10:14:39.370Z,33.20
2018-05-17T10:17:42.065Z,33.80
2018-05-17T10:20:45.271Z,34.20
2018-05-17T10:23:47.913Z,32.50
2018-05-17T10:26:51.264Z,29.90
2018-05-17T10:29:53.893Z,29.80
2018-05-17T10:32:56.731Z,30.00
2018-05-17T10:35:59.368Z,29.70
2018-05-17T10:39:02.066Z,29.40
2018-05-17T10:42:04.680Z,28.80
2018-05-17T10:45:07.318Z,28.70
2018-05-17T10:48:09.929Z,28.60
2018-05-17T10:51:12.491Z,28.90
2018-05-17T10:54:16.003Z,29.40
2018-05-17T10:57:19.186Z,29.40
2018-05-17T11:00:22.607Z,28.70
2018-05-17T11:03:25.180Z,28.70
2018-05-17T11:06:27.761Z,28.80
2018-05-17T11:09:31.184Z,30.20
2018-05-17T11:12:33.794Z,30.20
2018-05-17T11:15:36.414Z,30.00
2018-05-17T11:18:39.973Z,31.50
2018-05-17T11:21:42.560Z,31.50
2018-05-17T11:24:45.167Z,31.90
2018-05-17T11:27:47.779Z,30.80
2018-05-17T11:30:50.387Z,30.50
2018-05-17T11:33:53.264Z,31.80
2018-05-17T11:36:55.863Z,32.10
2018-05-17T11:39:59.037Z,31.60
2018-05-17T11:43:01.825Z,30.40
2018-05-17T11:46:05.463Z,29.80
2018-05-17T11:49:08.143Z,29.80
2018-05-17T11:52:13.153Z,29.10
2018-05-17T11:55:15.806Z,29.10
2018-05-17T11:58:19.396Z,30.10
2018-05-17T12:01:22.132Z,30.10
2018-05-17T12:04:24.891Z,29.70
2018-05-17T12:07:27.548Z,30.30
2018-05-17T12:10:30.330Z,30.40
2018-05-17T12:13:33.045Z,30.50
2018-05-17T12:16:36.552Z,29.60
2018-05-17T12:19:40.000Z,29.30
2018-05-17T12:22:43.371Z,29.20
2018-05-17T12:25:45.992Z,29.40
2018-05-17T12:28:48.726Z,28.90
2018-05-17T12:31:52.522Z,28.80
2018-05-17T12:34:55.233Z,29.30
2018-05-17T12:37:57.813Z,28.90
2018-05-17T12:41:00.410Z,28.60
2018-05-17T12:44:02.991Z,29.00
2018-05-17T12:47:05.658Z,28.90
2018-05-17T12:50:08.255Z,28.60
2018-05-17T12:53:13.688Z,28.50
2018-05-17T12:56:16.607Z,28.70
2018-05-17T12:59:19.248Z,29.30
2018-05-17T13:02:22.608Z,29.40
2018-05-17T13:05:25.435Z,29.40
2018-05-17T13:08:28.838Z,29.90
2018-05-17T13:11:32.194Z,29.80
2018-05-17T13:14:35.548Z,29.80
2018-05-17T13:17:38.149Z,29.70
2018-05-17T13:20:40.837Z,28.80
2018-05-17T13:23:43.433Z,28.40
2018-05-17T13:26:46.028Z,27.90
2018-05-17T13:29:48.650Z,27.20
2018-05-17T13:32:51.554Z,27.40
2018-05-17T13:35:54.215Z,28.00
2018-05-17T13:38:56.868Z,27.90
2018-05-17T13:41:59.502Z,28.20
2018-05-17T13:45:02.178Z,29.20
2018-05-17T13:48:04.821Z,29.40
2018-05-17T13:51:07.414Z,30.40
2018-05-17T13:54:10.033Z,30.60
2018-05-17T13:57:12.823Z,30.10
2018-05-17T14:00:15.467Z,31.20
2018-05-17T14:03:18.313Z,32.40
2018-05-17T14:06:20.909Z,31.60
2018-05-17T14:09:23.488Z,32.00
2018-05-17T14:12:26.047Z,30.00
2018-05-17T14:15:28.661Z,30.80
2018-05-17T14:18:31.285Z,30.50
2018-05-17T14:21:34.642Z,30.90
2018-05-17T14:24:37.267Z,30.90
2018-05-17T14:27:40.627Z,33.10
2018-05-17T14:30:43.368Z,33.00
2018-05-17T14:33:45.962Z,32.60
2018-05-17T14:36:48.541Z,33.20
2018-05-17T14:39:51.146Z,33.40
2018-05-17T14:42:53.770Z,33.20
2018-05-17T14:45:56.378Z,32.90
2018-05-17T14:48:59.161Z,32.20
2018-05-17T14:52:01.899Z,32.70
2018-05-17T14:55:04.510Z,32.40
2018-05-17T14:58:22.583Z,31.70
2018-05-17T15:01:25.231Z,32.20
2018-05-17T15:04:27.816Z,32.50
2018-05-17T15:07:30.448Z,32.90
2018-05-17T15:10:33.054Z,32.90
2018-05-17T15:13:35.646Z,33.00
2018-05-17T15:16:38.218Z,31.40
2018-05-17T15:19:40.802Z,31.20
2018-05-17T15:22:43.451Z,31.50
2018-05-17T15:25:46.223Z,31.70
2018-05-17T15:28:48.831Z,33.00
2018-05-17T15:31:51.409Z,32.30
2018-05-17T15:34:54.766Z,32.20
2018-05-17T15:37:57.709Z,32.70
2018-05-17T15:41:00.464Z,33.00
2018-05-17T15:44:03.065Z,33.00
2018-05-17T15:47:05.633Z,32.90
2018-05-17T15:50:08.232Z,33.00
2018-05-17T15:53:10.787Z,32.90
2018-05-17T15:56:13.562Z,33.30
2018-05-17T15:59:17.055Z,33.80
2018-05-17T16:02:21.317Z,38.40
2018-05-17T16:05:23.909Z,38.30
2018-05-17T16:08:26.608Z,39.10
2018-05-17T16:11:29.174Z,39.80
2018-05-17T16:14:31.842Z,40.30
2018-05-17T16:17:34.717Z,41.00
2018-05-17T16:20:37.319Z,41.30
2018-05-17T16:23:40.550Z,41.40
2018-05-17T16:26:43.174Z,41.30
2018-05-17T16:29:45.825Z,41.90
2018-05-17T16:32:49.389Z,42.70
2018-05-17T16:35:52.051Z,42.60
2018-05-17T16:38:54.822Z,41.90
2018-05-17T16:41:58.195Z,42.60
2018-05-17T16:45:00.774Z,42.40
2018-05-17T16:48:03.424Z,42.30
2018-05-17T16:51:06.409Z,43.30
2018-05-17T16:54:09.188Z,43.70
2018-05-17T16:57:11.720Z,43.60
2018-05-17T17:00:14.440Z,44.40
2018-05-17T17:03:17.249Z,44.20
2018-05-17T17:06:19.854Z,43.40
2018-05-17T17:09:22.451Z,43.20
2018-05-17T17:12:25.040Z,43.20
2018-05-17T17:15:27.630Z,43.50
2018-05-17T17:18:30.234Z,43.70
2018-05-17T17:21:33.024Z,44.70
2018-05-17T17:24:35.620Z,45.40
2018-05-17T17:27:38.193Z,45.60
2018-05-17T17:30:40.897Z,45.80
2018-05-17T17:33:43.471Z,46.20
2018-05-17T17:36:46.101Z,46.80
2018-05-17T17:39:48.707Z,47.30
2018-05-17T17:42:52.087Z,48.20
2018-05-17T17:45:54.679Z,48.10
2018-05-17T17:48:58.082Z,49.20
2018-05-17T17:52:00.700Z,49.10
2018-05-17T17:55:03.371Z,49.70
2018-05-17T17:58:05.978Z,49.70
2018-05-17T18:01:08.573Z,50.30
2018-05-17T18:04:11.211Z,50.50
2018-05-17T18:07:13.829Z,50.60
2018-05-17T18:10:16.462Z,50.70
2018-05-17T18:13:19.144Z,51.50
2018-05-17T18:16:22.534Z,50.90
2018-05-17T18:19:25.163Z,50.90
2018-05-17T18:22:27.820Z,51.00
2018-05-17T18:25:30.571Z,51.30
2018-05-17T18:28:33.233Z,51.30
2018-05-17T18:31:35.980Z,51.30
2018-05-17T18:34:39.867Z,51.40
2018-05-17T18:37:42.567Z,51.60
2018-05-17T18:40:45.444Z,51.50
2018-05-17T18:43:48.152Z,51.50
2018-05-17T18:46:50.889Z,51.80
2018-05-17T18:49:53.513Z,52.00
2018-05-17T18:52:56.353Z,51.80
2018-05-17T18:55:58.978Z,51.90
2018-05-17T18:59:01.607Z,52.10
2018-05-17T19:02:04.301Z,52.30
2018-05-17T19:05:06.943Z,52.20
2018-05-17T19:08:11.384Z,52.40
2018-05-17T19:11:14.085Z,52.50
2018-05-17T19:14:16.954Z,52.70
2018-05-17T19:17:21.339Z,52.80
2018-05-17T19:20:24.677Z,53.00
2018-05-17T19:23:29.912Z,53.40
2018-05-17T19:26:32.564Z,53.50
2018-05-17T19:29:35.913Z,53.90
2018-05-17T19:32:38.650Z,54.00
2018-05-17T19:35:41.563Z,54.50
2018-05-17T19:38:44.624Z,54.70
2018-05-17T19:41:47.424Z,54.90
2018-05-17T19:44:50.131Z,55.10
2018-05-17T19:47:52.816Z,55.40
2018-05-17T19:50:56.724Z,55.90
2018-05-17T19:53:59.397Z,56.10
2018-05-17T19:57:02.805Z,56.50
2018-05-17T20:00:05.913Z,56.50
2018-05-17T20:03:08.517Z,56.80
2018-05-17T20:06:11.171Z,57.10
2018-05-17T20:09:14.440Z,57.10
2018-05-17T20:12:17.769Z,57.60
2018-05-17T20:15:20.969Z,57.60
2018-05-17T20:18:23.551Z,57.90
2018-05-17T20:21:27.052Z,58.00
2018-05-17T20:24:30.561Z,58.20
2018-05-17T20:27:33.302Z,58.60
2018-05-17T20:30:36.034Z,58.80
2018-05-17T20:33:38.762Z,58.80
2018-05-17T20:36:41.422Z,58.90
2018-05-17T20:39:45.757Z,59.50
2018-05-17T20:42:48.340Z,59.70
2018-05-17T20:45:51.060Z,59.80
2018-05-17T20:48:53.694Z,59.60
2018-05-17T20:51:56.977Z,59.70
2018-05-17T20:54:59.644Z,59.70
2018-05-17T20:58:02.335Z,59.60
2018-05-17T21:01:05.216Z,59.50
2018-05-17T21:04:09.119Z,59.50
2018-05-17T21:07:11.941Z,60.20
2018-05-17T21:10:14.684Z,59.50
2018-05-17T21:13:18.194Z,59.50
2018-05-17T21:16:21.113Z,59.50
2018-05-17T21:19:25.153Z,59.70
2018-05-17T21:22:27.790Z,60.10
2018-05-17T21:25:31.259Z,60.60
2018-05-17T21:28:33.991Z,60.50
2018-05-17T21:31:36.662Z,60.80
2018-05-17T21:34:39.280Z,61.00
2018-05-17T21:37:41.918Z,60.90
2018-05-17T21:40:45.551Z,60.90
2018-05-17T21:43:48.156Z,60.90
2018-05-17T21:46:50.877Z,60.90
2018-05-17T21:49:54.343Z,61.80
2018-05-17T21:52:57.115Z,61.70
2018-05-17T21:55:59.734Z,61.80
2018-05-17T21:59:02.880Z,62.00
2018-05-17T22:02:05.593Z,62.20
2018-05-17T22:05:08.378Z,62.20
2018-05-17T22:08:11.171Z,62.50
2018-05-17T22:11:13.841Z,62.90
2018-05-17T22:14:16.621Z,63.00
2018-05-17T22:17:19.417Z,63.10
2018-05-17T22:20:22.132Z,63.30
2018-05-17T22:23:24.787Z,63.50
2018-05-17T22:26:27.358Z,63.70
2018-05-17T22:29:30.035Z,64.70
2018-05-17T22:32:32.726Z,64.10
2018-05-17T22:35:35.931Z,64.10
2018-05-17T22:38:38.977Z,64.40
2018-05-17T22:41:41.708Z,64.40
2018-05-17T22:44:44.377Z,64.50
2018-05-17T22:47:47.259Z,64.20
2018-05-17T22:50:50.027Z,64.20
2018-05-17T22:53:53.446Z,64.50
2018-05-17T22:57:07.850Z,64.50
2018-05-17T23:00:16.177Z,65.20
2018-05-17T23:03:19.314Z,65.20
2018-05-17T23:06:21.951Z,65.30
2018-05-17T23:09:24.559Z,65.00
2018-05-17T23:12:27.895Z,64.60
2018-05-17T23:15:30.479Z,64.50
2018-05-17T23:18:33.121Z,64.60
2018-05-17T23:21:35.824Z,64.40
2018-05-17T23:24:38.488Z,64.30
2018-05-17T23:27:41.404Z,64.30
2018-05-17T23:30:44.112Z,64.20
2018-05-17T23:33:46.975Z,64.00
2018-05-17T23:36:49.579Z,64.10
2018-05-17T23:39:52.223Z,64.30
2018-05-17T23:42:55.679Z,64.20
2018-05-17T23:45:58.272Z,64.10
2018-05-17T23:49:01.101Z,64.30
2018-05-17T23:52:05.174Z,64.50
2018-05-17T23:55:07.780Z,65.00
2018-05-17T23:58:10.373Z,64.60
